Time;durP1;ratioP1;P1;durP2;ratioP2;P2;SDS_P1;SDS_P2;PMS_P1;PMS_P2;Temp;Humidity;BMP_temperature;BMP_pressure;BME280_temperature;BME280_humidity;BME280_pressure;Samples;Min_cycle;Max_cycle;Signal;HPM_P1;HPM_P2
2023/06/11 00:01:08;;;;;;;205.07;195.77;;;16.40;99.90;;;;;;5084742;28;20041;-81
2023/06/11 00:03:35;;;;;;;208.25;198.55;;;16.40;99.90;;;;;;5089737;28;20118;-81
2023/06/11 00:06:01;;;;;;;198.90;189.68;;;16.50;99.90;;;;;;5091020;28;20051;-81
2023/06/11 00:08:26;;;;;;;201.05;191.85;;;16.50;99.90;;;;;;5084015;28;20051;-81
2023/06/11 00:10:52;;;;;;;210.65;200.68;;;16.50;99.90;;;;;;5082760;28;20132;-81
2023/06/11 00:13:18;;;;;;;223.85;213.65;;;16.50;99.90;;;;;;5059816;28;20043;-80
2023/06/11 00:15:43;;;;;;;226.25;215.75;;;16.60;99.90;;;;;;5062724;28;20088;-81
2023/06/11 00:18:10;;;;;;;207.82;198.30;;;16.70;99.90;;;;;;5086322;28;20151;-81
2023/06/11 00:20:40;;;;;;;198.05;189.25;;;16.70;99.90;;;;;;5073769;28;20054;-81
2023/06/11 00:23:06;;;;;;;208.35;198.50;;;16.70;99.90;;;;;;5069572;27;20102;-82
2023/06/11 00:25:32;;;;;;;190.52;181.82;;;16.70;99.90;;;;;;5088288;28;20047;-83
2023/06/11 00:27:58;;;;;;;224.60;214.32;;;16.70;99.90;;;;;;5073683;28;20049;-82
2023/06/11 00:30:24;;;;;;;217.93;207.75;;;16.70;99.90;;;;;;5107049;28;20078;-81
2023/06/11 00:32:50;;;;;;;245.15;233.90;;;16.70;99.90;;;;;;5082076;28;20071;-81
2023/06/11 00:35:16;;;;;;;234.40;223.90;;;16.70;99.90;;;;;;5068741;28;20547;-82
2023/06/11 00:37:42;;;;;;;286.05;273.08;;;16.70;99.90;;;;;;5085690;28;20067;-81
2023/06/11 00:40:09;;;;;;;320.02;304.58;;;16.70;99.90;;;;;;5090386;28;20043;-81
2023/06/11 00:42:35;;;;;;;310.52;296.25;;;16.70;99.90;;;;;;5088137;28;20098;-81
2023/06/11 00:45:03;;;;;;;338.92;322.92;;;16.70;99.90;;;;;;5071246;28;20116;-81
2023/06/11 00:47:29;;;;;;;355.75;338.85;;;16.70;99.90;;;;;;5071790;28;20038;-81
2023/06/11 00:49:56;;;;;;;300.13;286.15;;;16.60;99.90;;;;;;5078522;28;20842;-81
2023/06/11 00:52:22;;;;;;;322.17;307.25;;;16.60;99.90;;;;;;5090488;28;20040;-81
2023/06/11 00:54:48;;;;;;;375.90;357.65;;;16.60;99.90;;;;;;5088031;28;20096;-81
2023/06/11 00:57:24;;;;;;;356.55;339.40;;;16.60;99.90;;;;;;5088468;28;20487;-81
2023/06/11 00:59:51;;;;;;;368.52;350.73;;;16.60;99.90;;;;;;5083223;28;20036;-81
2023/06/11 01:02:26;;;;;;;378.98;360.60;;;16.60;99.90;;;;;;5083241;28;20046;-81
2023/06/11 01:04:56;;;;;;;379.85;361.13;;;16.50;99.90;;;;;;5067386;28;20052;-81
2023/06/11 01:07:25;;;;;;;383.02;364.30;;;16.50;99.90;;;;;;5085039;28;20047;-80
2023/06/11 01:09:51;;;;;;;404.33;384.67;;;16.50;99.90;;;;;;5082991;28;20513;-82
2023/06/11 01:12:17;;;;;;;382.40;363.95;;;16.50;99.90;;;;;;5092183;28;20244;-80
2023/06/11 01:14:42;;;;;;;387.27;368.55;;;16.50;99.90;;;;;;5067261;28;20119;-80
2023/06/11 01:17:26;;;;;;;384.50;365.70;;;16.40;99.90;;;;;;5087239;28;20043;-81
2023/06/11 01:19:58;;;;;;;376.35;357.77;;;16.50;99.90;;;;;;5083033;27;20071;-81
2023/06/11 01:23:09;;;;;;;297.70;283.80;;;16.50;99.90;;;;;;5084518;28;20112;-81
2023/06/11 01:25:40;;;;;;;308.88;294.23;;;16.40;99.90;;;;;;5054156;28;20135;-80
2023/06/11 01:28:10;;;;;;;291.20;277.42;;;16.40;99.90;;;;;;5083920;27;20074;-80
2023/06/11 01:30:39;;;;;;;299.88;285.33;;;16.40;99.90;;;;;;5089354;28;20470;-81
2023/06/11 01:33:08;;;;;;;341.98;325.23;;;16.40;99.90;;;;;;5088709;28;20146;-80
2023/06/11 01:35:34;;;;;;;328.15;312.50;;;16.30;99.90;;;;;;5088797;28;20047;-80
2023/06/11 01:38:02;;;;;;;362.35;344.92;;;16.30;99.90;;;;;;5067457;28;20047;-80
2023/06/11 01:40:28;;;;;;;309.42;294.85;;;16.20;99.90;;;;;;5085915;28;20071;-80
2023/06/11 01:42:57;;;;;;;295.35;281.40;;;16.20;99.90;;;;;;5060652;28;20043;-81
2023/06/11 01:45:24;;;;;;;324.10;308.52;;;16.20;99.90;;;;;;5077963;28;20058;-80
2023/06/11 01:47:50;;;;;;;284.85;271.50;;;16.10;99.90;;;;;;5085022;28;20035;-80
2023/06/11 01:50:17;;;;;;;270.17;257.60;;;16.10;99.90;;;;;;5061883;28;20092;-80
2023/06/11 01:52:44;;;;;;;271.42;258.77;;;16.00;99.90;;;;;;5088469;28;20036;-80
2023/06/11 01:55:11;;;;;;;261.83;249.50;;;16.00;99.90;;;;;;5082181;28;20503;-80
2023/06/11 01:57:37;;;;;;;224.68;214.25;;;16.00;99.90;;;;;;5089300;28;20066;-80
2023/06/11 02:00:10;;;;;;;218.82;208.55;;;15.90;99.90;;;;;;5083935;28;20047;-80
2023/06/11 02:02:38;;;;;;;190.48;181.65;;;15.90;99.90;;;;;;5061407;28;20040;-80
2023/06/11 02:05:04;;;;;;;129.18;122.75;;;15.90;99.90;;;;;;5072881;28;20058;-80
2023/06/11 02:07:29;;;;;;;191.20;182.30;;;15.90;99.90;;;;;;5084865;28;20051;-81
2023/06/11 02:09:55;;;;;;;104.45;99.28;;;15.90;99.90;;;;;;5088927;28;20043;-81
2023/06/11 02:12:21;;;;;;;81.63;77.38;;;15.90;99.90;;;;;;5084197;28;20453;-81
2023/06/11 02:14:46;;;;;;;80.57;76.32;;;15.80;99.90;;;;;;5089659;28;20062;-81
2023/06/11 02:17:12;;;;;;;63.17;59.55;;;15.80;99.90;;;;;;5076359;28;20364;-80
2023/06/11 02:19:38;;;;;;;57.38;54.17;;;15.80;99.90;;;;;;5088360;28;20186;-80
2023/06/11 02:22:04;;;;;;;55.92;52.83;;;15.80;99.90;;;;;;5076597;28;20036;-81
2023/06/11 02:24:30;;;;;;;76.07;72.13;;;15.90;99.90;;;;;;5122458;27;20092;-80
2023/06/11 02:26:55;;;;;;;59.88;56.65;;;15.90;99.90;;;;;;5088776;28;20050;-81
2023/06/11 02:29:21;;;;;;;71.40;67.68;;;15.90;99.90;;;;;;5072753;28;20055;-81
2023/06/11 02:31:46;;;;;;;71.85;68.07;;;15.80;99.90;;;;;;5072800;28;20051;-80
2023/06/11 02:34:12;;;;;;;81.28;77.05;;;15.90;99.90;;;;;;5085742;28;20047;-81
2023/06/11 02:36:38;;;;;;;88.80;84.25;;;15.80;99.90;;;;;;5088099;28;20078;-81
2023/06/11 02:39:03;;;;;;;76.50;72.53;;;15.80;99.90;;;;;;5074784;28;20146;-81
2023/06/11 02:41:29;;;;;;;59.85;56.60;;;15.70;99.90;;;;;;5087738;28;20066;-80
2023/06/11 02:43:55;;;;;;;53.17;50.10;;;15.70;99.90;;;;;;5061305;28;20074;-80
2023/06/11 02:46:21;;;;;;;67.80;63.85;;;15.60;99.90;;;;;;5070075;28;20138;-81
2023/06/11 02:48:47;;;;;;;124.18;118.10;;;15.60;99.90;;;;;;5065695;28;20036;-80
2023/06/11 02:51:13;;;;;;;76.05;71.93;;;15.60;99.90;;;;;;5080028;28;20046;-81
2023/06/11 02:53:39;;;;;;;75.20;71.13;;;15.50;99.90;;;;;;5067699;28;20540;-81
2023/06/11 02:56:05;;;;;;;92.10;87.40;;;15.50;99.90;;;;;;5082203;28;20069;-81
2023/06/11 02:58:31;;;;;;;85.53;81.13;;;15.50;99.90;;;;;;5071341;28;20037;-81
2023/06/11 03:00:56;;;;;;;107.03;101.72;;;15.50;99.90;;;;;;5077485;28;20396;-81
2023/06/11 03:03:22;;;;;;;89.25;84.50;;;15.50;99.90;;;;;;5084899;28;20658;-82
2023/06/11 03:05:48;;;;;;;83.85;79.38;;;15.50;99.90;;;;;;5061620;27;20050;-80
2023/06/11 03:08:13;;;;;;;97.57;92.70;;;15.60;99.90;;;;;;5084821;28;20058;-80
2023/06/11 03:10:39;;;;;;;72.22;68.32;;;15.60;99.90;;;;;;5065331;28;20071;-81
2023/06/11 03:13:05;;;;;;;66.97;63.22;;;15.60;99.90;;;;;;5088449;28;20044;-80
2023/06/11 03:15:31;;;;;;;64.25;60.85;;;15.60;99.90;;;;;;5073350;28;20050;-81
2023/06/11 03:17:57;;;;;;;60.17;56.90;;;15.60;99.90;;;;;;5086649;28;20044;-82
2023/06/11 03:20:22;;;;;;;54.53;51.22;;;15.60;99.90;;;;;;5089264;28;20084;-80
2023/06/11 03:22:48;;;;;;;51.05;48.08;;;15.60;99.90;;;;;;5083053;28;20560;-81
2023/06/11 03:25:14;;;;;;;48.70;45.70;;;15.70;99.90;;;;;;5071688;28;20478;-81
2023/06/11 03:27:40;;;;;;;50.30;47.40;;;15.70;99.90;;;;;;5089469;28;20084;-80
2023/06/11 03:30:06;;;;;;;51.53;48.53;;;15.70;99.90;;;;;;5070170;28;20108;-81
2023/06/11 03:32:32;;;;;;;55.00;51.80;;;15.80;99.90;;;;;;5091735;28;20495;-81
2023/06/11 03:34:58;;;;;;;52.50;49.45;;;15.80;99.90;;;;;;5081381;28;20040;-81
2023/06/11 03:37:23;;;;;;;53.22;49.85;;;15.80;99.90;;;;;;5072365;28;20032;-81
2023/06/11 03:39:49;;;;;;;53.80;50.58;;;15.80;99.90;;;;;;5061680;28;20412;-80
2023/06/11 03:42:14;;;;;;;54.72;51.67;;;15.90;99.90;;;;;;5073068;28;20139;-80
2023/06/11 03:44:40;;;;;;;55.63;52.38;;;16.00;99.90;;;;;;5088993;28;20515;-81
2023/06/11 03:47:06;;;;;;;62.75;59.35;;;16.00;99.90;;;;;;5086629;28;20483;-81
2023/06/11 03:49:32;;;;;;;60.92;57.42;;;16.00;99.90;;;;;;5089726;28;20048;-81
2023/06/11 03:51:57;;;;;;;62.15;58.67;;;16.00;99.90;;;;;;5069862;28;20055;-81
2023/06/11 03:54:23;;;;;;;63.60;60.10;;;16.00;99.90;;;;;;5091248;28;20118;-81
2023/06/11 03:56:49;;;;;;;66.93;63.17;;;16.10;99.90;;;;;;5081490;28;20392;-80
2023/06/11 03:59:15;;;;;;;65.40;61.90;;;16.10;99.90;;;;;;5071363;28;20039;-81
2023/06/11 04:01:41;;;;;;;66.38;62.88;;;16.10;99.90;;;;;;5090552;28;20043;-81
2023/06/11 04:04:07;;;;;;;63.28;59.78;;;16.10;99.90;;;;;;5090302;28;20054;-80
2023/06/11 04:06:40;;;;;;;64.47;60.97;;;16.20;99.90;;;;;;5073424;28;20050;-81
2023/06/11 04:09:06;;;;;;;66.85;63.28;;;16.20;99.90;;;;;;5085461;28;20442;-80
2023/06/11 04:11:32;;;;;;;64.82;61.20;;;16.30;99.90;;;;;;5101177;28;20044;-81
2023/06/11 04:13:58;;;;;;;64.55;60.97;;;16.30;99.90;;;;;;5078786;28;20505;-80
2023/06/11 04:16:24;;;;;;;60.10;56.67;;;16.30;99.90;;;;;;5088176;28;20384;-79
2023/06/11 04:18:50;;;;;;;60.38;56.92;;;16.40;99.90;;;;;;5073521;28;20101;-81
2023/06/11 04:21:16;;;;;;;60.97;57.58;;;16.40;99.90;;;;;;5090951;28;20062;-81
2023/06/11 04:23:42;;;;;;;62.58;59.17;;;16.50;99.90;;;;;;5092243;28;20039;-81
2023/06/11 04:26:07;;;;;;;59.97;56.63;;;16.60;99.90;;;;;;5088132;28;20039;-80
2023/06/11 04:28:37;;;;;;;59.45;56.15;;;16.60;99.90;;;;;;5063019;27;20047;-82
2023/06/11 04:31:06;;;;;;;64.72;61.25;;;16.70;99.90;;;;;;5089147;27;20085;-80
2023/06/11 04:33:32;;;;;;;58.92;55.50;;;16.80;99.90;;;;;;5078837;28;20044;-82
2023/06/11 04:36:07;;;;;;;71.40;67.60;;;16.90;99.90;;;;;;5063132;28;20156;-81
2023/06/11 04:38:33;;;;;;;66.65;63.03;;;17.00;99.90;;;;;;5077612;28;20109;-82
2023/06/11 04:41:00;;;;;;;63.08;59.42;;;17.10;99.90;;;;;;5061625;28;20044;-82
2023/06/11 04:43:26;;;;;;;64.50;60.95;;;17.10;99.90;;;;;;5082834;28;20034;-82
2023/06/11 04:45:59;;;;;;;74.38;70.30;;;17.20;99.90;;;;;;5090687;28;20047;-80
2023/06/11 04:48:27;;;;;;;62.58;58.88;;;17.20;99.90;;;;;;5089368;28;20044;-82
2023/06/11 04:50:54;;;;;;;65.78;61.97;;;17.30;99.90;;;;;;5068718;28;20043;-83
2023/06/11 04:53:24;;;;;;;73.35;69.45;;;17.40;99.90;;;;;;5072729;28;20054;-82
2023/06/11 04:55:51;;;;;;;62.90;59.42;;;17.40;99.90;;;;;;5069173;28;20149;-82
2023/06/11 04:58:21;;;;;;;70.03;66.18;;;17.50;99.90;;;;;;5077219;28;20495;-83
2023/06/11 05:00:51;;;;;;;55.10;51.58;;;17.60;99.90;;;;;;5089124;28;20069;-81
2023/06/11 05:03:18;;;;;;;54.63;51.38;;;17.70;99.90;;;;;;5089377;28;20067;-82
2023/06/11 05:05:50;;;;;;;52.15;48.88;;;17.80;99.90;;;;;;5059672;28;20446;-81
2023/06/11 05:08:21;;;;;;;53.47;50.42;;;18.00;99.90;;;;;;5068595;28;20051;-83
2023/06/11 05:10:47;;;;;;;56.08;52.70;;;18.20;99.90;;;;;;5078133;27;20050;-81
2023/06/11 05:13:13;;;;;;;59.55;56.08;;;18.30;99.90;;;;;;5092592;28;20106;-81
2023/06/11 05:15:40;;;;;;;57.33;54.08;;;18.40;99.90;;;;;;5063943;28;20369;-82
2023/06/11 05:18:06;;;;;;;56.20;52.75;;;18.50;99.90;;;;;;5073060;28;20518;-82
2023/06/11 05:20:31;;;;;;;54.25;50.83;;;18.60;99.90;;;;;;5086355;28;20534;-82
2023/06/11 05:23:02;;;;;;;62.53;59.13;;;18.70;99.90;;;;;;5072334;28;20123;-83
2023/06/11 05:25:29;;;;;;;73.60;69.68;;;18.70;99.90;;;;;;5068220;28;20401;-82
2023/06/11 05:27:58;;;;;;;65.68;61.83;;;18.80;99.90;;;;;;5086617;28;20040;-81
2023/06/11 05:30:26;;;;;;;66.15;62.42;;;18.90;99.90;;;;;;5078635;28;20055;-82
2023/06/11 05:32:53;;;;;;;73.07;69.28;;;19.00;99.90;;;;;;5065534;28;20044;-83
2023/06/11 05:35:20;;;;;;;75.78;71.85;;;19.10;99.90;;;;;;5073032;28;20134;-82
2023/06/11 05:37:46;;;;;;;83.78;79.65;;;19.20;99.90;;;;;;5087135;28;20035;-82
2023/06/11 05:40:12;;;;;;;88.88;84.50;;;19.20;99.90;;;;;;5089783;28;20044;-83
2023/06/11 05:42:38;;;;;;;94.82;90.18;;;19.30;99.90;;;;;;5072067;28;20092;-82
2023/06/11 05:45:05;;;;;;;89.05;84.65;;;19.40;99.90;;;;;;5066941;28;20047;-83
2023/06/11 05:47:32;;;;;;;90.50;86.10;;;19.50;99.90;;;;;;5060514;28;20040;-83
2023/06/11 05:49:59;;;;;;;142.77;135.82;;;19.60;99.90;;;;;;5070775;28;20031;-83
2023/06/11 05:52:24;;;;;;;145.93;139.35;;;19.70;99.90;;;;;;5070760;28;20525;-81
2023/06/11 05:54:50;;;;;;;152.43;145.35;;;19.80;99.90;;;;;;5083687;28;20039;-81
2023/06/11 05:57:20;;;;;;;223.73;213.65;;;19.80;99.90;;;;;;5072171;28;20104;-83
2023/06/11 05:59:46;;;;;;;164.43;157.02;;;20.00;99.90;;;;;;5089021;28;20372;-83
2023/06/11 06:02:12;;;;;;;182.52;174.25;;;20.20;99.90;;;;;;5071118;28;20040;-83
2023/06/11 06:04:38;;;;;;;158.25;150.35;;;20.30;99.90;;;;;;5081141;28;20051;-81
2023/06/11 06:07:04;;;;;;;347.75;331.38;;;20.40;99.90;;;;;;5086711;28;20044;-81
2023/06/11 06:09:29;;;;;;;480.02;455.80;;;20.50;99.90;;;;;;5085153;28;20039;-82
2023/06/11 06:11:55;;;;;;;296.35;282.48;;;20.60;99.90;;;;;;5089242;28;20400;-83
2023/06/11 06:14:20;;;;;;;409.58;389.75;;;20.70;99.90;;;;;;5068541;28;20585;-81
2023/06/11 06:16:46;;;;;;;475.60;450.80;;;20.90;99.90;;;;;;5062942;28;20031;-82
2023/06/11 06:19:12;;;;;;;218.23;207.60;;;21.30;99.90;;;;;;5068516;28;20039;-83
2023/06/11 06:21:38;;;;;;;345.63;328.63;;;21.80;99.90;;;;;;5097886;28;20043;-81
2023/06/11 06:24:04;;;;;;;268.15;255.23;;;22.60;99.90;;;;;;5083627;28;20118;-83
2023/06/11 06:26:30;;;;;;;284.30;271.17;;;23.60;99.90;;;;;;5083549;28;20043;-84
2023/06/11 06:28:56;;;;;;;244.80;233.45;;;24.50;99.90;;;;;;5072602;28;20063;-83
2023/06/11 06:31:22;;;;;;;250.18;238.70;;;25.30;99.90;;;;;;5073081;28;20056;-83
2023/06/11 06:33:50;;;;;;;197.57;188.27;;;26.10;99.90;;;;;;5098313;28;20399;-84
2023/06/11 06:36:22;;;;;;;291.67;278.05;;;26.70;99.90;;;;;;5070364;28;20499;-83
2023/06/11 06:38:47;;;;;;;406.85;386.38;;;27.10;99.90;;;;;;5091317;28;20574;-82
2023/06/11 06:41:13;;;;;;;393.85;373.95;;;27.40;99.90;;;;;;5091840;28;20118;-82
2023/06/11 06:43:39;;;;;;;407.42;386.95;;;27.70;99.90;;;;;;5074976;28;20079;-83
2023/06/11 06:46:04;;;;;;;369.55;350.75;;;28.00;99.90;;;;;;5089605;28;20044;-83
2023/06/11 06:48:32;;;;;;;115.00;109.40;;;28.40;99.90;;;;;;5088533;28;20123;-83
2023/06/11 06:50:59;;;;;;;146.55;139.80;;;28.60;99.90;;;;;;5075727;28;20047;-83
2023/06/11 06:53:25;;;;;;;228.25;217.32;;;28.70;99.40;;;;;;5082602;28;20040;-83
2023/06/11 06:55:50;;;;;;;142.43;135.65;;;28.90;99.80;;;;;;5088030;28;20099;-83
2023/06/11 06:58:16;;;;;;;44.58;41.80;;;29.20;99.10;;;;;;5070802;28;20043;-83
2023/06/11 07:00:42;;;;;;;36.08;33.67;;;29.50;97.40;;;;;;5072378;28;20398;-82
2023/06/11 07:03:09;;;;;;;22.10;20.33;;;29.70;96.80;;;;;;5073921;28;20399;-82
2023/06/11 07:05:34;;;;;;;22.42;20.63;;;29.80;94.30;;;;;;5085129;28;20044;-83
2023/06/11 07:08:00;;;;;;;21.38;19.55;;;29.80;94.50;;;;;;5072617;28;20048;-83
2023/06/11 07:10:26;;;;;;;26.90;25.00;;;30.00;93.50;;;;;;5071908;28;20047;-83
2023/06/11 07:12:51;;;;;;;23.13;21.20;;;30.30;94.00;;;;;;5100798;28;20039;-83
2023/06/11 07:15:17;;;;;;;18.95;17.42;;;30.50;92.20;;;;;;5091788;28;20032;-83
2023/06/11 07:17:43;;;;;;;27.35;25.48;;;30.50;92.00;;;;;;5089791;28;20040;-82
2023/06/11 07:20:09;;;;;;;48.45;45.78;;;30.50;91.10;;;;;;5093245;28;20430;-83
2023/06/11 07:22:34;;;;;;;19.58;17.92;;;30.70;90.30;;;;;;5066896;28;20471;-84
2023/06/11 07:25:01;;;;;;;27.60;25.60;;;30.70;89.80;;;;;;5068042;28;20127;-83
2023/06/11 07:27:27;;;;;;;79.13;75.03;;;30.70;90.00;;;;;;5086694;28;20046;-84
2023/06/11 07:29:52;;;;;;;28.98;26.90;;;30.90;88.60;;;;;;5090338;28;20048;-83
2023/06/11 07:32:18;;;;;;;213.45;203.55;;;31.10;88.20;;;;;;5068493;28;20493;-84
2023/06/11 07:34:44;;;;;;;198.85;189.55;;;31.20;87.00;;;;;;5093420;28;20039;-83
2023/06/11 07:37:10;;;;;;;222.50;212.15;;;31.40;85.10;;;;;;5085507;27;20102;-84
2023/06/11 07:39:35;;;;;;;240.55;229.57;;;31.30;84.60;;;;;;5066312;28;20039;-82
2023/06/11 07:42:03;;;;;;;38.55;36.17;;;31.40;84.60;;;;;;5086681;28;20043;-85
2023/06/11 07:44:28;;;;;;;222.75;212.75;;;31.30;85.00;;;;;;5089600;28;20410;-83
2023/06/11 07:46:54;;;;;;;180.27;172.18;;;31.40;83.10;;;;;;5090515;28;20062;-82
2023/06/11 07:49:19;;;;;;;173.30;165.52;;;31.40;83.40;;;;;;5089924;28;20122;-82
2023/06/11 07:51:46;;;;;;;202.25;192.88;;;31.40;81.30;;;;;;5081617;28;20813;-84
2023/06/11 07:54:12;;;;;;;255.60;243.98;;;31.20;80.10;;;;;;5086956;28;20406;-82
2023/06/11 07:56:37;;;;;;;237.30;226.60;;;31.20;80.90;;;;;;5074004;28;20031;-83
2023/06/11 07:59:03;;;;;;;173.43;165.45;;;31.20;80.80;;;;;;5086599;28;20038;-82
2023/06/11 08:01:29;;;;;;;112.55;106.95;;;31.10;79.80;;;;;;5073505;28;20036;-81
2023/06/11 08:03:55;;;;;;;209.85;200.23;;;31.10;85.40;;;;;;5062503;27;20052;-82
2023/06/11 08:06:20;;;;;;;200.68;191.43;;;29.80;86.30;;;;;;5085183;27;20039;-79
2023/06/11 08:08:47;;;;;;;113.07;107.43;;;28.70;87.60;;;;;;5076838;27;20105;-81
2023/06/11 08:11:13;;;;;;;201.98;192.60;;;28.30;90.90;;;;;;5070184;28;20047;-83
2023/06/11 08:13:40;;;;;;;130.60;124.40;;;28.20;92.30;;;;;;5093453;28;20402;-82
2023/06/11 08:16:07;;;;;;;140.50;134.05;;;28.20;92.90;;;;;;5110293;27;20044;-81
2023/06/11 08:18:33;;;;;;;103.45;98.55;;;28.40;92.40;;;;;;5087082;28;20123;-81
2023/06/11 08:21:00;;;;;;;166.80;159.23;;;28.60;93.10;;;;;;5063110;28;20039;-83
2023/06/11 08:23:26;;;;;;;140.57;134.07;;;28.90;91.80;;;;;;5080679;27;20093;-78
2023/06/11 08:25:52;;;;;;;63.70;60.30;;;29.20;91.40;;;;;;5077435;28;20074;-82
2023/06/11 08:28:19;;;;;;;59.50;56.33;;;29.40;91.50;;;;;;5074238;27;20062;-81
2023/06/11 08:30:45;;;;;;;84.13;80.03;;;29.80;91.30;;;;;;5098799;28;20043;-84
2023/06/11 08:33:11;;;;;;;92.25;87.80;;;30.00;91.00;;;;;;5086946;28;20050;-79
2023/06/11 08:35:37;;;;;;;83.18;79.22;;;30.20;90.80;;;;;;5067342;28;20035;-79
2023/06/11 08:38:03;;;;;;;90.05;85.93;;;30.30;89.40;;;;;;5054883;28;20047;-81
2023/06/11 08:40:29;;;;;;;100.90;96.38;;;30.40;89.40;;;;;;5065449;28;20047;-81
2023/06/11 08:42:55;;;;;;;100.15;95.43;;;30.50;88.60;;;;;;5071127;28;20409;-79
2023/06/11 08:45:20;;;;;;;74.72;70.85;;;30.70;90.00;;;;;;5085723;28;20044;-80
2023/06/11 08:47:52;;;;;;;194.85;185.25;;;30.90;88.70;;;;;;5083620;28;20043;-82
2023/06/11 08:50:24;;;;;;;89.05;84.82;;;30.80;84.50;;;;;;5100358;28;20042;-83
2023/06/11 08:52:53;;;;;;;136.05;129.60;;;30.50;86.30;;;;;;5056626;28;20447;-84
2023/06/11 08:55:19;;;;;;;99.93;95.32;;;29.80;86.40;;;;;;5076031;28;20067;-84
2023/06/11 08:57:46;;;;;;;82.63;78.63;;;29.40;89.00;;;;;;5084141;28;20051;-82
2023/06/11 09:00:12;;;;;;;109.13;104.05;;;29.30;88.90;;;;;;5087950;28;20054;-84
2023/06/11 09:02:38;;;;;;;86.78;82.22;;;29.40;91.60;;;;;;5073186;27;20070;-83
2023/06/11 09:05:04;;;;;;;85.03;80.70;;;29.70;92.60;;;;;;5089844;28;20491;-84
2023/06/11 09:07:30;;;;;;;96.65;92.10;;;29.90;92.40;;;;;;5065065;28;20086;-83
2023/06/11 09:10:02;;;;;;;82.22;78.00;;;28.90;92.10;;;;;;5085938;28;20087;-84
2023/06/11 09:12:28;;;;;;;82.65;78.65;;;28.30;93.80;;;;;;5087716;28;20043;-82
2023/06/11 09:14:54;;;;;;;115.30;109.93;;;28.00;95.00;;;;;;5063747;28;20477;-84
2023/06/11 09:17:19;;;;;;;67.30;63.65;;;28.10;98.70;;;;;;5087843;28;20523;-84
2023/06/11 09:19:46;;;;;;;86.22;81.97;;;27.80;98.50;;;;;;5078847;28;20308;-83
2023/06/11 09:22:11;;;;;;;88.30;84.20;;;27.60;97.00;;;;;;5083085;28;20039;-84
2023/06/11 09:24:37;;;;;;;97.03;92.32;;;27.90;98.70;;;;;;5076563;28;20411;-85
2023/06/11 09:27:05;;;;;;;86.45;82.25;;;27.90;98.20;;;;;;5101549;28;20044;-83
2023/06/11 09:29:31;;;;;;;79.43;75.43;;;28.10;97.10;;;;;;5049869;28;20411;-82
2023/06/11 09:32:03;;;;;;;61.90;58.42;;;28.50;96.90;;;;;;5044865;28;20082;-82
2023/06/11 09:34:28;;;;;;;79.05;74.85;;;28.80;95.00;;;;;;5046260;28;20048;-83
2023/06/11 09:36:54;;;;;;;187.10;177.85;;;29.10;93.10;;;;;;5055204;28;20041;-82
2023/06/11 09:39:20;;;;;;;73.63;70.07;;;29.40;94.20;;;;;;5053688;28;20039;-82
2023/06/11 09:41:48;;;;;;;85.55;81.45;;;29.40;95.30;;;;;;5045163;28;20051;-84
2023/06/11 09:44:14;;;;;;;89.38;85.03;;;29.50;95.20;;;;;;5094619;28;20500;-84
2023/06/11 09:46:40;;;;;;;163.15;155.30;;;29.70;94.20;;;;;;5057572;28;20051;-81
2023/06/11 09:49:06;;;;;;;118.75;113.00;;;29.80;94.50;;;;;;5051131;28;20051;-83
2023/06/11 09:51:35;;;;;;;86.88;82.65;;;30.00;92.70;;;;;;5064075;28;20040;-83
2023/06/11 09:54:02;;;;;;;129.60;123.47;;;30.20;92.40;;;;;;5050233;28;20381;-83
2023/06/11 09:56:28;;;;;;;209.75;199.98;;;30.40;93.00;;;;;;5063403;28;20045;-84
2023/06/11 09:58:56;;;;;;;274.85;261.98;;;30.50;90.30;;;;;;5051639;28;20166;-84
2023/06/11 10:01:25;;;;;;;191.95;183.07;;;30.70;90.60;;;;;;5100662;28;20058;-81
2023/06/11 10:03:51;;;;;;;126.07;120.20;;;30.90;89.50;;;;;;5051538;28;20086;-83
2023/06/11 10:06:22;;;;;;;244.55;233.30;;;31.00;89.90;;;;;;5065789;28;20044;-83
2023/06/11 10:08:51;;;;;;;102.00;97.15;;;31.10;87.40;;;;;;5065687;28;20048;-84
2023/06/11 10:11:21;;;;;;;179.35;170.07;;;31.20;90.00;;;;;;5054301;28;20158;-84
2023/06/11 10:13:57;;;;;;;125.90;119.65;;;31.30;87.90;;;;;;5045392;28;20628;-84
2023/06/11 10:16:23;;;;;;;205.98;196.48;;;31.30;87.00;;;;;;5056512;28;20044;-84
2023/06/11 10:18:50;;;;;;;87.90;83.63;;;31.30;85.10;;;;;;5039878;28;20051;-84
2023/06/11 10:21:17;;;;;;;296.75;282.98;;;31.30;87.30;;;;;;5063401;28;20557;-82
2023/06/11 10:23:50;;;;;;;172.27;163.98;;;31.40;85.50;;;;;;5068963;28;20036;-85
2023/06/11 10:26:16;;;;;;;305.70;291.20;;;31.40;84.50;;;;;;5069186;28;20612;-83
2023/06/11 10:28:45;;;;;;;189.02;180.18;;;31.40;84.00;;;;;;5060249;28;20135;-82
2023/06/11 10:31:10;;;;;;;256.63;244.65;;;31.40;81.90;;;;;;5081955;27;20050;-84
2023/06/11 10:33:44;;;;;;;167.85;160.10;;;31.50;81.40;;;;;;5084473;28;20043;-84
2023/06/11 10:36:20;;;;;;;186.60;178.00;;;31.70;78.00;;;;;;5064952;28;20451;-82
2023/06/11 10:38:46;;;;;;;146.80;140.10;;;31.70;80.90;;;;;;5089938;28;20039;-83
2023/06/11 10:41:12;;;;;;;100.57;95.90;;;31.80;79.60;;;;;;5071501;28;20042;-83
2023/06/11 10:43:38;;;;;;;158.65;151.32;;;31.80;78.20;;;;;;5081150;28;20035;-83
2023/06/11 10:46:11;;;;;;;229.65;219.13;;;31.80;77.00;;;;;;5072598;28;20434;-81
2023/06/11 10:48:43;;;;;;;213.43;203.68;;;31.80;78.40;;;;;;5064437;28;20040;-82
2023/06/11 10:51:13;;;;;;;184.40;175.77;;;31.90;77.40;;;;;;5064831;28;20044;-83
2023/06/11 10:53:40;;;;;;;116.97;111.35;;;32.00;77.30;;;;;;5092778;28;20047;-82
2023/06/11 10:56:12;;;;;;;156.48;149.45;;;32.00;77.00;;;;;;5081617;27;20123;-83
2023/06/11 10:58:38;;;;;;;267.48;255.07;;;32.00;76.80;;;;;;5065013;28;20126;-83
2023/06/11 11:01:07;;;;;;;155.23;148.02;;;32.20;76.90;;;;;;5088495;28;20074;-85
2023/06/11 11:03:34;;;;;;;139.60;132.77;;;32.10;75.90;;;;;;5089846;28;20039;-83
2023/06/11 11:06:00;;;;;;;201.13;191.98;;;32.10;76.30;;;;;;5066328;28;20070;-83
2023/06/11 11:08:26;;;;;;;135.45;128.93;;;32.10;76.40;;;;;;5089124;28;20044;-82
2023/06/11 11:10:54;;;;;;;135.23;128.90;;;32.20;75.00;;;;;;5066334;27;20039;-85
2023/06/11 11:13:20;;;;;;;116.20;110.70;;;32.20;72.80;;;;;;5093817;28;20043;-84
2023/06/11 11:15:46;;;;;;;181.70;173.25;;;32.20;76.30;;;;;;5058291;28;20465;-83
2023/06/11 11:18:12;;;;;;;176.70;168.43;;;32.40;76.00;;;;;;5091020;28;20032;-83
2023/06/11 11:20:37;;;;;;;118.53;113.13;;;32.50;74.30;;;;;;5065699;28;20485;-84
2023/06/11 11:23:06;;;;;;;144.75;138.15;;;32.50;74.10;;;;;;5066276;28;20556;-83
2023/06/11 11:25:32;;;;;;;147.52;140.77;;;32.60;70.60;;;;;;5068317;28;20039;-84
2023/06/11 11:27:58;;;;;;;172.60;164.25;;;32.70;72.70;;;;;;5079319;28;20058;-83
2023/06/11 11:30:28;;;;;;;145.95;139.32;;;32.80;73.20;;;;;;5085577;27;20047;-82
2023/06/11 11:32:55;;;;;;;141.35;134.95;;;32.90;72.80;;;;;;5077800;28;20045;-83
2023/06/11 11:35:22;;;;;;;124.03;118.20;;;32.80;70.40;;;;;;5071466;28;20551;-81
2023/06/11 11:37:50;;;;;;;180.90;172.55;;;32.80;70.80;;;;;;5063110;28;20047;-83
2023/06/11 11:40:22;;;;;;;116.50;111.10;;;32.80;70.80;;;;;;5061586;28;20507;-85
2023/06/11 11:42:49;;;;;;;170.27;162.68;;;32.90;70.10;;;;;;5079533;27;20035;-84
2023/06/11 11:45:16;;;;;;;143.82;137.27;;;32.90;68.20;;;;;;5064509;28;20114;-83
2023/06/11 11:47:50;;;;;;;168.05;160.38;;;33.00;68.80;;;;;;5070083;28;20388;-84
2023/06/11 11:50:26;;;;;;;170.93;163.20;;;33.00;67.00;;;;;;5073229;28;20411;-82
2023/06/11 11:53:05;;;;;;;163.60;156.10;;;33.00;66.50;;;;;;5062065;28;20502;-81
2023/06/11 11:55:35;;;;;;;162.82;155.45;;;33.00;63.70;;;;;;5081672;28;20095;-83
2023/06/11 11:58:15;;;;;;;183.07;174.63;;;32.80;64.50;;;;;;5087252;28;20044;-82
2023/06/11 12:00:50;;;;;;;140.88;134.55;;;32.80;65.40;;;;;;5076756;28;20040;-83
2023/06/11 12:03:18;;;;;;;203.32;194.05;;;32.70;65.20;;;;;;5086848;28;20820;-80
2023/06/11 12:05:58;;;;;;;172.70;164.90;;;32.20;62.50;;;;;;5077118;27;20347;-82
2023/06/11 12:08:25;;;;;;;198.10;189.13;;;32.20;66.10;;;;;;5072652;28;20036;-82
2023/06/11 12:10:51;;;;;;;204.57;195.25;;;32.30;64.40;;;;;;5099641;28;20043;-81
2023/06/11 12:13:17;;;;;;;171.98;164.18;;;32.50;65.20;;;;;;5073974;28;20461;-84
2023/06/11 12:15:42;;;;;;;161.77;154.30;;;32.80;62.30;;;;;;5074861;28;20036;-81